N511 LOWI-LSZS
Flight info
| Callsign | N511 |
|---|---|
| Flight time | 0h 31m |
| Altitude | 12500 |
| Route | ADILO DCT BILDU DCT TIRUL DCT RONAG |
| Aircraft | DC3/M-SDF/S |
Departure
| Time | 2026-04-22 06:50 |
|---|---|
| Airport | Innsbruck Airport (LOWI) |
Arrival
| Time | 2026-04-22 07:22 |
|---|---|
| Airport | Engadin Airport (LSZS) |
| Time | Latitude | Longitude | Altitude | Speed | Heading |
|---|---|---|---|---|---|
| 2026-04-22 06:27 | 47.25866 | 11.35380 | 1888 ft | 0 kts | 259° |
| 2026-04-22 06:43 | 47.25866 | 11.35379 | 1887 ft | 0 kts | 259° |
| 2026-04-22 06:43 | 47.25866 | 11.35380 | 1887 ft | 0 kts | 259° |
| 2026-04-22 06:44 | 47.25866 | 11.35378 | 1887 ft | 1 kts | 260° |
| 2026-04-22 06:44 | 47.25868 | 11.35307 | 1888 ft | 11 kts | 283° |
| 2026-04-22 06:45 | 47.25876 | 11.35154 | 1888 ft | 15 kts | 278° |
| 2026-04-22 06:45 | 47.25869 | 11.35006 | 1888 ft | 14 kts | 254° |
| 2026-04-22 06:45 | 47.25852 | 11.34844 | 1891 ft | 17 kts | 264° |
| 2026-04-22 06:45 | 47.25836 | 11.34666 | 1891 ft | 16 kts | 255° |
| 2026-04-22 06:46 | 47.25818 | 11.34499 | 1895 ft | 15 kts | 260° |
| 2026-04-22 06:46 | 47.25802 | 11.34337 | 1895 ft | 16 kts | 264° |
| 2026-04-22 06:46 | 47.25780 | 11.34149 | 1899 ft | 18 kts | 262° |
| 2026-04-22 06:46 | 47.25775 | 11.33978 | 1903 ft | 14 kts | 279° |
| 2026-04-22 06:47 | 47.25813 | 11.33867 | 1907 ft | 12 kts | 304° |
| 2026-04-22 06:47 | 47.25876 | 11.33742 | 1911 ft | 17 kts | 309° |
| 2026-04-22 06:47 | 47.25919 | 11.33582 | 1915 ft | 18 kts | 282° |
| 2026-04-22 06:47 | 47.25913 | 11.33394 | 1919 ft | 20 kts | 258° |
| 2026-04-22 06:48 | 47.25872 | 11.33223 | 1916 ft | 8 kts | 210° |
| 2026-04-22 06:48 | 47.25888 | 11.33194 | 1916 ft | 3 kts | 74° |
| 2026-04-22 06:48 | 47.25891 | 11.33210 | 1916 ft | 0 kts | 78° |
| 2026-04-22 06:49 | 47.25900 | 11.33395 | 1925 ft | 41 kts | 95° |
| 2026-04-22 06:49 | 47.25855 | 11.33873 | 2041 ft | 47 kts | 92° |
| 2026-04-22 06:49 | 47.25951 | 11.34382 | 2079 ft | 54 kts | 73° |
| 2026-04-22 06:50 | 47.26061 | 11.34981 | 2159 ft | 64 kts | 75° |
| 2026-04-22 06:50 | 47.26151 | 11.35659 | 2285 ft | 66 kts | 82° |
| 2026-04-22 06:50 | 47.26207 | 11.36358 | 2375 ft | 78 kts | 80° |
| 2026-04-22 06:50 | 47.26303 | 11.37225 | 2529 ft | 87 kts | 86° |
| 2026-04-22 06:51 | 47.26040 | 11.38054 | 2685 ft | 100 kts | 143° |
| 2026-04-22 06:51 | 47.25334 | 11.38260 | 2876 ft | 106 kts | 192° |
| 2026-04-22 06:51 | 47.24686 | 11.37716 | 3124 ft | 106 kts | 230° |
| 2026-04-22 06:51 | 47.24362 | 11.36768 | 3342 ft | 106 kts | 267° |
| 2026-04-22 06:52 | 47.24359 | 11.35636 | 3460 ft | 116 kts | 282° |
| 2026-04-22 06:52 | 47.24491 | 11.34412 | 3566 ft | 120 kts | 282° |
| 2026-04-22 06:52 | 47.24618 | 11.33184 | 3646 ft | 125 kts | 277° |
| 2026-04-22 06:52 | 47.24627 | 11.31875 | 3783 ft | 127 kts | 278° |
| 2026-04-22 06:53 | 47.24756 | 11.30575 | 3867 ft | 129 kts | 283° |
| 2026-04-22 06:53 | 47.24921 | 11.29295 | 3938 ft | 133 kts | 287° |
| 2026-04-22 06:53 | 47.25143 | 11.27915 | 3935 ft | 140 kts | 291° |
| 2026-04-22 06:53 | 47.25583 | 11.26644 | 3982 ft | 140 kts | 302° |
| 2026-04-22 06:54 | 47.26068 | 11.25381 | 4119 ft | 142 kts | 302° |
| 2026-04-22 06:54 | 47.26566 | 11.24093 | 4251 ft | 144 kts | 303° |
| 2026-04-22 06:54 | 47.27063 | 11.22790 | 4372 ft | 145 kts | 303° |
| 2026-04-22 06:54 | 47.27564 | 11.21479 | 4549 ft | 143 kts | 302° |
| 2026-04-22 06:55 | 47.28051 | 11.20217 | 4701 ft | 141 kts | 302° |
| 2026-04-22 06:55 | 47.28541 | 11.18944 | 4872 ft | 139 kts | 302° |
| 2026-04-22 06:55 | 47.29019 | 11.17704 | 5039 ft | 138 kts | 302° |
| 2026-04-22 06:55 | 47.29501 | 11.16460 | 5182 ft | 137 kts | 302° |
| 2026-04-22 06:56 | 47.29788 | 11.15128 | 5319 ft | 140 kts | 273° |
| 2026-04-22 06:56 | 47.29704 | 11.13689 | 5506 ft | 139 kts | 268° |
| 2026-04-22 06:56 | 47.29594 | 11.12214 | 5682 ft | 147 kts | 268° |
| 2026-04-22 06:56 | 47.29486 | 11.10676 | 5937 ft | 149 kts | 268° |
| 2026-04-22 06:57 | 47.29376 | 11.09143 | 6234 ft | 147 kts | 267° |
| 2026-04-22 06:57 | 47.29268 | 11.07640 | 6524 ft | 146 kts | 268° |
| 2026-04-22 06:57 | 47.29155 | 11.06136 | 6824 ft | 144 kts | 268° |
| 2026-04-22 06:57 | 47.29046 | 11.04652 | 7126 ft | 142 kts | 268° |
| 2026-04-22 06:58 | 47.28945 | 11.03190 | 7384 ft | 143 kts | 268° |
| 2026-04-22 06:58 | 47.28842 | 11.01694 | 7636 ft | 144 kts | 268° |
| 2026-04-22 06:58 | 47.28732 | 11.00200 | 7891 ft | 145 kts | 268° |
| 2026-04-22 06:58 | 47.28532 | 10.98707 | 8141 ft | 146 kts | 261° |
| 2026-04-22 06:59 | 47.28299 | 10.97239 | 8385 ft | 146 kts | 260° |
| 2026-04-22 06:59 | 47.27931 | 10.95806 | 8625 ft | 147 kts | 246° |
| 2026-04-22 06:59 | 47.27438 | 10.94468 | 8876 ft | 147 kts | 246° |
| 2026-04-22 06:59 | 47.26950 | 10.93154 | 9128 ft | 146 kts | 246° |
| 2026-04-22 07:00 | 47.26448 | 10.91810 | 9384 ft | 145 kts | 245° |
| 2026-04-22 07:00 | 47.25946 | 10.90465 | 9612 ft | 147 kts | 246° |
| 2026-04-22 07:00 | 47.25436 | 10.89118 | 9834 ft | 147 kts | 246° |
| 2026-04-22 07:00 | 47.24926 | 10.87782 | 10102 ft | 144 kts | 246° |
| 2026-04-22 07:01 | 47.24426 | 10.86470 | 10319 ft | 144 kts | 245° |
| 2026-04-22 07:01 | 47.23915 | 10.85140 | 10503 ft | 147 kts | 246° |
| 2026-04-22 07:01 | 47.23385 | 10.83766 | 10638 ft | 152 kts | 245° |
| 2026-04-22 07:01 | 47.22848 | 10.82357 | 10769 ft | 155 kts | 246° |
| 2026-04-22 07:02 | 47.22305 | 10.80943 | 10949 ft | 154 kts | 245° |
| 2026-04-22 07:02 | 47.21770 | 10.79533 | 11142 ft | 152 kts | 245° |
| 2026-04-22 07:02 | 47.21231 | 10.78164 | 11322 ft | 150 kts | 241° |
| 2026-04-22 07:02 | 47.20414 | 10.77092 | 11523 ft | 152 kts | 224° |
| 2026-04-22 07:03 | 47.19541 | 10.76131 | 11664 ft | 154 kts | 224° |
| 2026-04-22 07:03 | 47.18647 | 10.75143 | 11787 ft | 156 kts | 223° |
| 2026-04-22 07:03 | 47.17749 | 10.74142 | 11928 ft | 157 kts | 224° |
| 2026-04-22 07:03 | 47.16776 | 10.73298 | 12065 ft | 161 kts | 215° |
| 2026-04-22 07:04 | 47.15751 | 10.72508 | 12205 ft | 163 kts | 214° |
| 2026-04-22 07:04 | 47.14691 | 10.71698 | 12301 ft | 169 kts | 214° |
| 2026-04-22 07:04 | 47.13587 | 10.70843 | 12313 ft | 177 kts | 215° |
| 2026-04-22 07:04 | 47.12449 | 10.69949 | 12332 ft | 183 kts | 214° |
| 2026-04-22 07:05 | 47.11277 | 10.69027 | 12296 ft | 187 kts | 214° |
| 2026-04-22 07:05 | 47.10108 | 10.68092 | 12297 ft | 187 kts | 215° |
| 2026-04-22 07:05 | 47.08926 | 10.67151 | 12288 ft | 188 kts | 214° |
| 2026-04-22 07:05 | 47.07742 | 10.66198 | 12287 ft | 188 kts | 214° |
| 2026-04-22 07:06 | 47.06569 | 10.65250 | 12294 ft | 188 kts | 215° |
| 2026-04-22 07:06 | 47.05384 | 10.64294 | 12276 ft | 189 kts | 214° |
| 2026-04-22 07:06 | 47.04190 | 10.63328 | 12268 ft | 189 kts | 214° |
| 2026-04-22 07:06 | 47.03018 | 10.62385 | 12270 ft | 189 kts | 215° |
| 2026-04-22 07:07 | 47.01848 | 10.61437 | 12257 ft | 190 kts | 215° |
| 2026-04-22 07:07 | 47.00678 | 10.60483 | 12262 ft | 189 kts | 215° |
| 2026-04-22 07:07 | 46.99500 | 10.59528 | 12260 ft | 189 kts | 214° |
| 2026-04-22 07:07 | 46.98338 | 10.58594 | 12264 ft | 189 kts | 214° |
| 2026-04-22 07:08 | 46.97169 | 10.57661 | 12273 ft | 189 kts | 214° |
| 2026-04-22 07:08 | 46.96000 | 10.56714 | 12264 ft | 189 kts | 215° |
| 2026-04-22 07:08 | 46.94830 | 10.55768 | 12267 ft | 189 kts | 214° |
| 2026-04-22 07:08 | 46.93666 | 10.54839 | 12260 ft | 190 kts | 214° |
| 2026-04-22 07:09 | 46.92489 | 10.53890 | 12260 ft | 190 kts | 215° |
| 2026-04-22 07:09 | 46.91310 | 10.52936 | 12257 ft | 190 kts | 214° |
| 2026-04-22 07:09 | 46.90133 | 10.51986 | 12261 ft | 190 kts | 215° |
| 2026-04-22 07:09 | 46.88974 | 10.51046 | 12262 ft | 190 kts | 215° |
| 2026-04-22 07:10 | 46.87784 | 10.50088 | 12260 ft | 189 kts | 214° |
| 2026-04-22 07:10 | 46.86615 | 10.49148 | 12259 ft | 190 kts | 214° |
| 2026-04-22 07:10 | 46.85441 | 10.48195 | 12256 ft | 190 kts | 215° |
| 2026-04-22 07:10 | 46.84360 | 10.47041 | 12227 ft | 185 kts | 235° |
| 2026-04-22 07:11 | 46.83578 | 10.45536 | 12224 ft | 183 kts | 244° |
| 2026-04-22 07:11 | 46.83080 | 10.43828 | 12259 ft | 179 kts | 251° |
| 2026-04-22 07:11 | 46.82595 | 10.42113 | 12256 ft | 180 kts | 252° |
| 2026-04-22 07:11 | 46.82112 | 10.40401 | 12254 ft | 180 kts | 252° |
| 2026-04-22 07:12 | 46.81622 | 10.38668 | 12254 ft | 180 kts | 252° |
| 2026-04-22 07:12 | 46.81138 | 10.36958 | 12260 ft | 180 kts | 252° |
| 2026-04-22 07:12 | 46.80656 | 10.35243 | 12268 ft | 180 kts | 252° |
| 2026-04-22 07:12 | 46.80166 | 10.33519 | 12262 ft | 181 kts | 251° |
| 2026-04-22 07:13 | 46.79680 | 10.31796 | 12265 ft | 181 kts | 251° |
| 2026-04-22 07:13 | 46.79113 | 10.30114 | 12272 ft | 182 kts | 246° |
| 2026-04-22 07:13 | 46.78484 | 10.28494 | 12265 ft | 184 kts | 241° |
| 2026-04-22 07:13 | 46.77800 | 10.26893 | 12265 ft | 184 kts | 242° |
| 2026-04-22 07:14 | 46.77112 | 10.25293 | 12267 ft | 184 kts | 242° |
| 2026-04-22 07:14 | 46.76435 | 10.23697 | 12280 ft | 184 kts | 242° |
| 2026-04-22 07:14 | 46.75763 | 10.22129 | 12295 ft | 184 kts | 242° |
| 2026-04-22 07:14 | 46.75079 | 10.20521 | 12295 ft | 184 kts | 242° |
| 2026-04-22 07:15 | 46.74397 | 10.18935 | 12287 ft | 185 kts | 242° |
| 2026-04-22 07:15 | 46.73701 | 10.17305 | 12284 ft | 186 kts | 242° |
| 2026-04-22 07:15 | 46.73005 | 10.15692 | 12109 ft | 189 kts | 242° |
| 2026-04-22 07:15 | 46.72319 | 10.14090 | 11977 ft | 177 kts | 241° |
| 2026-04-22 07:16 | 46.71660 | 10.12621 | 11631 ft | 171 kts | 235° |
| 2026-04-22 07:16 | 46.70838 | 10.11340 | 11072 ft | 174 kts | 230° |
| 2026-04-22 07:16 | 46.69994 | 10.10064 | 10513 ft | 173 kts | 230° |
| 2026-04-22 07:16 | 46.69179 | 10.08800 | 9966 ft | 171 kts | 230° |
| 2026-04-22 07:17 | 46.68364 | 10.07516 | 9404 ft | 170 kts | 229° |
| 2026-04-22 07:17 | 46.67549 | 10.06206 | 9018 ft | 182 kts | 230° |
| 2026-04-22 07:17 | 46.66643 | 10.04809 | 8790 ft | 187 kts | 221° |
| 2026-04-22 07:17 | 46.65581 | 10.03648 | 8553 ft | 193 kts | 218° |
| 2026-04-22 07:18 | 46.64503 | 10.02487 | 8422 ft | 192 kts | 218° |
| 2026-04-22 07:18 | 46.63435 | 10.01269 | 8264 ft | 192 kts | 225° |
| 2026-04-22 07:18 | 46.62563 | 9.99809 | 8252 ft | 183 kts | 230° |
| 2026-04-22 07:18 | 46.61706 | 9.98380 | 8220 ft | 180 kts | 230° |
| 2026-04-22 07:19 | 46.60880 | 9.97002 | 8173 ft | 171 kts | 230° |
| 2026-04-22 07:19 | 46.60134 | 9.95776 | 7971 ft | 147 kts | 229° |
| 2026-04-22 07:19 | 46.59484 | 9.94741 | 7740 ft | 133 kts | 229° |
| 2026-04-22 07:19 | 46.58846 | 9.93805 | 7503 ft | 115 kts | 224° |
| 2026-04-22 07:20 | 46.58267 | 9.93099 | 7272 ft | 103 kts | 222° |
| 2026-04-22 07:20 | 46.57729 | 9.92395 | 7077 ft | 100 kts | 225° |
| 2026-04-22 07:20 | 46.57224 | 9.91713 | 6868 ft | 97 kts | 225° |
| 2026-04-22 07:20 | 46.56715 | 9.91086 | 6648 ft | 95 kts | 218° |
| 2026-04-22 07:21 | 46.56103 | 9.90589 | 6425 ft | 100 kts | 211° |
| 2026-04-22 07:21 | 46.55505 | 9.90145 | 6155 ft | 86 kts | 210° |
| 2026-04-22 07:21 | 46.55035 | 9.89700 | 5926 ft | 81 kts | 215° |
| 2026-04-22 07:21 | 46.54536 | 9.89294 | 5745 ft | 82 kts | 211° |
| 2026-04-22 07:22 | 46.54037 | 9.88891 | 5567 ft | 78 kts | 212° |
| 2026-04-22 07:22 | 46.53632 | 9.88567 | 5545 ft | 49 kts | 212° |
| 2026-04-22 07:22 | 46.53355 | 9.88334 | 5552 ft | 45 kts | 207° |
| 2026-04-22 07:22 | 46.53090 | 9.88120 | 5558 ft | 35 kts | 208° |
| 2026-04-22 07:23 | 46.52994 | 9.88037 | 5559 ft | 1 kts | 262° |
| 2026-04-22 07:23 | 46.52992 | 9.88018 | 5559 ft | 1 kts | 270° |
| 2026-04-22 07:23 | 46.52997 | 9.87997 | 5560 ft | 1 kts | 285° |
| 2026-04-22 07:23 | 46.53010 | 9.87945 | 5561 ft | 4 kts | 329° |
| 2026-04-22 07:24 | 46.53058 | 9.87974 | 5560 ft | 9 kts | 24° |
| 2026-04-22 07:24 | 46.53102 | 9.87970 | 5560 ft | 6 kts | 276° |
| 2026-04-22 07:24 | 46.53104 | 9.87942 | 5560 ft | 0 kts | 200° |